Terminal Aerodrome Forecast
Issued by NWS Melbourne, FL

Current Version | Previous Version | Text Only | Print | Product List | Glossary On
Versions: 1 2 3 4 5 6 7 8 9 10 11 12 13 14 15 16 17 18
134
FTUS42 KMLB 211127
TAFMLB
TAF
KMLB 211127Z 2112/2212 33003KT P6SM FEW025
     FM211500 04008KT P6SM SCT025 SCT250
     FM211800 05011KT P6SM SCT030 SCT250
     FM220200 07008KT P6SM SCT030 SCT250=

USA.gov is the U.S. government's official web portal to all federal, state and local government web resources and services.